Time;durP1;ratioP1;P1;durP2;ratioP2;P2;SDS_P1;SDS_P2;PMS_P1;PMS_P2;Temp;Humidity;BMP_temperature;BMP_pressure;BME280_temperature;BME280_humidity;BME280_pressure;Samples;Min_cycle;Max_cycle;Signal;HPM_P1;HPM_P2
2024/01/13 00:03:25;;;;;;;37.50;17.00;;;;;;;-2.03;100.00;99416.15;272670;1282;22227;-85
2024/01/13 00:10:11;;;;;;;31.80;15.90;;;;;;;-2.02;100.00;99411.98;272823;1281;22230;-85
2024/01/13 00:16:41;;;;;;;36.50;16.20;;;;;;;-2.02;100.00;99406.48;272618;1277;22268;-85
2024/01/13 00:23:18;;;;;;;31.80;16.20;;;;;;;-2.01;100.00;99409.54;272668;1275;22276;-85
2024/01/13 00:30:20;;;;;;;31.30;14.30;;;;;;;-2.02;100.00;99410.94;272146;1281;23438;-85
2024/01/13 00:37:08;;;;;;;30.20;15.00;;;;;;;-2.03;100.00;99408.96;270183;1275;22253;-84
2024/01/13 00:43:52;;;;;;;33.40;17.60;;;;;;;-2.05;100.00;99401.32;269955;1264;22612;-83
2024/01/13 00:51:14;;;;;;;32.30;15.80;;;;;;;-2.07;100.00;99405.36;270809;1275;22366;-86
2024/01/13 00:58:24;;;;;;;30.50;14.80;;;;;;;-2.11;100.00;99394.34;272490;1277;23396;-84
2024/01/13 01:05:08;;;;;;;35.30;17.20;;;;;;;-2.14;100.00;99395.27;271616;1279;22220;-85
2024/01/13 01:11:53;;;;;;;31.40;16.00;;;;;;;-2.16;100.00;99393.59;269468;1260;24023;-85
2024/01/13 01:18:17;;;;;;;36.30;16.80;;;;;;;-2.20;100.00;99393.56;269076;1277;22571;-85
2024/01/13 01:24:49;;;;;;;34.70;17.60;;;;;;;-2.23;100.00;99391.23;272583;1282;22193;-85
2024/01/13 01:32:02;;;;;;;39.00;20.20;;;;;;;-2.25;100.00;99385.61;270830;1275;22711;-85
2024/01/13 01:38:43;;;;;;;36.90;18.60;;;;;;;-2.24;100.00;99378.31;269203;1277;22444;-85
2024/01/13 01:45:25;;;;;;;35.60;19.10;;;;;;;-2.23;100.00;99365.11;272544;1283;22211;-85
2024/01/13 01:52:28;;;;;;;31.20;17.10;;;;;;;-2.23;100.00;99353.89;269721;1274;24399;-84
2024/01/13 01:59:11;;;;;;;35.00;19.40;;;;;;;-2.23;100.00;99349.29;269300;1277;23123;-85
2024/01/13 02:05:54;;;;;;;35.70;18.70;;;;;;;-2.23;100.00;99343.76;268922;1275;22533;-85
2024/01/13 02:13:16;;;;;;;34.00;17.80;;;;;;;-2.23;100.00;99336.63;269342;1277;22411;-86
2024/01/13 02:20:21;;;;;;;37.00;17.60;;;;;;;-2.23;100.00;99330.46;270150;1274;22346;-85
2024/01/13 02:27:24;;;;;;;37.50;18.40;;;;;;;-2.23;100.00;99316.84;269320;1283;22670;-86
2024/01/13 02:33:34;;;;;;;36.60;18.20;;;;;;;-2.22;100.00;99318.05;272094;1262;123331;-84
2024/01/13 02:39:35;;;;;;;31.80;17.50;;;;;;;-2.22;100.00;99310.16;272455;1278;22520;-84
2024/01/13 02:45:37;;;;;;;35.20;17.80;;;;;;;-2.21;100.00;99303.04;272437;1272;22810;-84
2024/01/13 02:51:39;;;;;;;33.50;19.10;;;;;;;-2.19;100.00;99298.72;272485;1275;22927;-84
2024/01/13 02:57:40;;;;;;;28.30;15.50;;;;;;;-2.17;100.00;99289.52;272603;1279;23136;-86
2024/01/13 03:03:42;;;;;;;28.20;16.40;;;;;;;-2.14;100.00;99290.84;272623;1277;22368;-86
2024/01/13 03:09:44;;;;;;;27.80;15.50;;;;;;;-2.13;100.00;99286.91;272553;1281;22224;-85
2024/01/13 03:15:46;;;;;;;26.50;15.00;;;;;;;-2.12;100.00;99293.38;272591;1276;22281;-85
2024/01/13 03:21:48;;;;;;;30.10;16.90;;;;;;;-2.11;100.00;99291.33;272591;1281;22410;-85
2024/01/13 03:27:49;;;;;;;27.60;14.70;;;;;;;-2.08;100.00;99286.27;272625;1279;22368;-83
2024/01/13 03:33:51;;;;;;;30.20;15.00;;;;;;;-2.07;100.00;99275.19;272696;1276;22844;-85
2024/01/13 03:39:53;;;;;;;28.80;13.40;;;;;;;-2.06;100.00;99269.34;272641;1276;23761;-84
2024/01/13 03:45:54;;;;;;;20.60;11.60;;;;;;;-2.03;100.00;99263.78;272692;1266;22188;-83
2024/01/13 03:51:56;;;;;;;27.70;13.50;;;;;;;-1.99;100.00;99257.19;272549;1278;22480;-84
2024/01/13 03:57:58;;;;;;;24.80;12.30;;;;;;;-1.96;100.00;99248.45;272608;1280;22207;-83
2024/01/13 04:04:00;;;;;;;18.50;11.10;;;;;;;-1.92;100.00;99240.31;271153;1275;22396;-84
2024/01/13 04:10:02;;;;;;;21.70;12.00;;;;;;;-1.89;100.00;99236.19;270682;1276;22553;-84
2024/01/13 04:16:04;;;;;;;21.80;12.60;;;;;;;-1.87;100.00;99229.40;272525;1281;22524;-84
2024/01/13 04:22:05;;;;;;;23.70;12.30;;;;;;;-1.84;100.00;99227.91;272038;1276;22216;-85
2024/01/13 04:28:08;;;;;;;20.10;11.00;;;;;;;-1.80;100.00;99228.55;269520;1275;22554;-85
2024/01/13 04:34:26;;;;;;;20.80;9.70;;;;;;;-1.76;100.00;99232.41;270823;1277;22212;-85
2024/01/13 04:40:49;;;;;;;20.90;11.60;;;;;;;-1.72;100.00;99234.77;272747;1281;22197;-85
2024/01/13 04:46:51;;;;;;;20.10;11.80;;;;;;;-1.69;100.00;99231.89;271705;1279;22221;-85
2024/01/13 04:52:53;;;;;;;23.30;12.40;;;;;;;-1.67;100.00;99230.63;269305;1276;22553;-85
2024/01/13 04:58:58;;;;;;;20.50;11.80;;;;;;;-1.66;100.00;99224.40;272323;1282;22354;-85
2024/01/13 05:05:00;;;;;;;24.00;11.00;;;;;;;-1.65;100.00;99219.48;272669;1282;22206;-85
2024/01/13 05:11:03;;;;;;;15.90;10.00;;;;;;;-1.64;100.00;99214.38;272688;1278;23342;-85
2024/01/13 05:17:05;;;;;;;26.60;12.80;;;;;;;-1.61;100.00;99209.55;272618;1275;22245;-85
2024/01/13 05:23:07;;;;;;;20.60;10.90;;;;;;;-1.59;100.00;99196.74;272498;1277;22827;-85
2024/01/13 05:29:10;;;;;;;26.30;11.70;;;;;;;-1.58;100.00;99190.77;272697;1282;22171;-84
2024/01/13 05:35:12;;;;;;;19.80;10.80;;;;;;;-1.56;100.00;99183.22;272663;1280;22691;-84
2024/01/13 05:41:14;;;;;;;17.40;9.30;;;;;;;-1.54;100.00;99177.40;272720;1282;22283;-85
2024/01/13 05:47:36;;;;;;;15.00;8.40;;;;;;;-1.55;100.00;99182.35;272698;1277;22306;-85
2024/01/13 05:53:38;;;;;;;17.60;9.50;;;;;;;-1.53;100.00;99187.98;272514;1280;22283;-85
2024/01/13 06:00:03;;;;;;;19.60;10.80;;;;;;;-1.50;100.00;99190.08;272707;1282;23033;-86
2024/01/13 06:06:24;;;;;;;20.70;11.70;;;;;;;-1.47;100.00;99196.95;272407;1282;22394;-85
2024/01/13 06:12:36;;;;;;;24.70;11.10;;;;;;;-1.43;100.00;99199.73;272216;1283;22247;-84
2024/01/13 06:18:39;;;;;;;21.00;10.50;;;;;;;-1.40;100.00;99208.17;269671;1277;22450;-85
2024/01/13 06:24:40;;;;;;;19.80;9.40;;;;;;;-1.38;100.00;99212.92;270546;1277;22730;-86
2024/01/13 06:30:42;;;;;;;22.40;10.00;;;;;;;-1.35;100.00;99214.48;271553;1276;25308;-84
2024/01/13 06:36:44;;;;;;;20.50;9.70;;;;;;;-1.33;100.00;99205.20;272348;1273;23475;-84
2024/01/13 06:42:47;;;;;;;23.20;9.30;;;;;;;-1.29;100.00;99199.67;272416;1276;22327;-85
2024/01/13 06:48:48;;;;;;;24.10;10.50;;;;;;;-1.26;100.00;99198.45;272120;1277;22295;-85
2024/01/13 06:54:50;;;;;;;18.60;10.00;;;;;;;-1.24;100.00;99190.75;269156;1278;22693;-84
2024/01/13 07:00:58;;;;;;;18.30;9.90;;;;;;;-1.23;100.00;99187.76;269145;1277;23599;-84
2024/01/13 07:06:59;;;;;;;18.00;9.30;;;;;;;-1.20;100.00;99190.29;270713;1275;22409;-84
2024/01/13 07:13:01;;;;;;;23.10;9.50;;;;;;;-1.17;100.00;99182.55;272641;1277;22151;-84
2024/01/13 07:19:03;;;;;;;27.10;11.10;;;;;;;-1.14;100.00;99195.52;272602;1267;22237;-85
2024/01/13 07:25:05;;;;;;;26.30;9.60;;;;;;;-1.10;100.00;99191.62;271536;1277;22575;-85
2024/01/13 07:31:20;;;;;;;18.30;9.80;;;;;;;-1.07;100.00;99186.25;272727;1276;22400;-85
2024/01/13 07:37:33;;;;;;;19.50;9.90;;;;;;;-1.04;100.00;99190.55;270011;1276;22074;-85
2024/01/13 07:43:36;;;;;;;22.50;11.00;;;;;;;-1.01;100.00;99192.29;270030;1275;22567;-84
2024/01/13 07:49:38;;;;;;;22.20;11.20;;;;;;;-0.99;100.00;99194.65;268885;1275;24261;-84
2024/01/13 07:55:39;;;;;;;24.00;12.30;;;;;;;-0.96;100.00;99192.52;270448;1273;22197;-85
2024/01/13 08:01:41;;;;;;;20.70;10.10;;;;;;;-0.94;100.00;99190.70;270876;1279;22541;-83
2024/01/13 08:07:43;;;;;;;24.00;11.10;;;;;;;-0.92;100.00;99189.53;268711;1276;23754;-85
2024/01/13 08:13:45;;;;;;;23.80;11.60;;;;;;;-0.88;100.00;99183.19;272515;1275;22208;-86
2024/01/13 08:19:46;;;;;;;19.80;10.00;;;;;;;-0.83;100.00;99180.73;272558;1276;22466;-86
2024/01/13 08:25:50;;;;;;;21.30;11.90;;;;;;;-0.77;100.00;99175.63;272566;1277;22197;-84
2024/01/13 08:31:52;;;;;;;21.80;10.70;;;;;;;-0.73;100.00;99175.39;271746;1271;22433;-87
2024/01/13 08:37:56;;;;;;;21.60;10.20;;;;;;;-0.69;100.00;99171.34;272302;1276;22255;-84
2024/01/13 08:43:57;;;;;;;20.20;10.70;;;;;;;-0.65;100.00;99165.23;272485;1275;22354;-85
2024/01/13 08:50:08;;;;;;;19.90;10.70;;;;;;;-0.60;100.00;99163.65;271143;1277;22367;-85
2024/01/13 08:56:10;;;;;;;18.80;9.90;;;;;;;-0.57;100.00;99158.37;272393;1275;22321;-84
2024/01/13 09:02:11;;;;;;;20.40;11.30;;;;;;;-0.53;100.00;99160.11;272382;1276;23302;-85
2024/01/13 09:08:13;;;;;;;19.20;9.40;;;;;;;-0.49;100.00;99159.92;272245;1274;22618;-85
2024/01/13 09:14:16;;;;;;;19.60;9.30;;;;;;;-0.45;100.00;99154.25;270397;1278;22688;-84
2024/01/13 09:20:18;;;;;;;18.90;10.00;;;;;;;-0.41;100.00;99146.41;271590;1275;22219;-84
2024/01/13 09:26:20;;;;;;;21.60;10.60;;;;;;;-0.37;100.00;99142.57;272529;1281;167010;-85
2024/01/13 09:32:22;;;;;;;16.60;8.70;;;;;;;-0.32;100.00;99139.14;272103;1272;27649;-85
2024/01/13 09:38:33;;;;;;;17.90;9.20;;;;;;;-0.28;100.00;99131.15;269429;1276;22415;-86
2024/01/13 09:44:35;;;;;;;20.10;10.40;;;;;;;-0.24;100.00;99126.86;269682;1277;22747;-84
2024/01/13 09:50:39;;;;;;;20.10;10.60;;;;;;;-0.21;100.00;99122.16;271965;1277;22237;-85
2024/01/13 09:56:46;;;;;;;16.30;9.80;;;;;;;-0.16;100.00;99112.86;272565;1275;22238;-85
2024/01/13 10:02:47;;;;;;;19.50;9.60;;;;;;;-0.11;100.00;99095.02;270036;1275;22831;-85
2024/01/13 10:08:49;;;;;;;17.60;9.20;;;;;;;-0.08;100.00;99080.29;271470;1275;22342;-85
2024/01/13 10:14:51;;;;;;;21.20;9.10;;;;;;;-0.05;100.00;99083.29;272256;1278;22315;-85
2024/01/13 10:20:53;;;;;;;16.70;9.40;;;;;;;-0.02;100.00;99074.23;270780;1276;22560;-85
2024/01/13 10:26:55;;;;;;;16.50;9.50;;;;;;;0.06;100.00;99068.84;270040;1276;23057;-84
2024/01/13 10:33:00;;;;;;;17.00;9.20;;;;;;;0.11;100.00;99062.42;269406;1276;22591;-84
2024/01/13 10:39:02;;;;;;;20.10;9.40;;;;;;;0.13;100.00;99053.92;271150;1277;22641;-84
2024/01/13 10:45:24;;;;;;;20.00;10.40;;;;;;;0.14;100.00;99052.98;270503;1275;25417;-84
2024/01/13 10:51:35;;;;;;;18.00;9.50;;;;;;;0.15;100.00;99057.86;272187;1276;22348;-86
2024/01/13 10:57:38;;;;;;;19.10;9.80;;;;;;;0.17;100.00;99042.63;272438;1280;22243;-86
2024/01/13 11:03:41;;;;;;;18.80;10.30;;;;;;;0.21;100.00;99034.45;271677;1275;23901;-84
2024/01/13 11:09:43;;;;;;;21.60;10.50;;;;;;;0.22;100.00;99030.98;271206;1273;22321;-85
2024/01/13 11:16:06;;;;;;;20.70;10.40;;;;;;;0.22;100.00;99025.92;272642;1275;23580;-85
2024/01/13 11:22:37;;;;;;;21.70;9.70;;;;;;;0.22;100.00;99015.79;272768;1279;22203;-85
2024/01/13 11:28:50;;;;;;;19.40;9.70;;;;;;;0.21;100.00;98999.29;272960;1281;23124;-84
2024/01/13 11:34:52;;;;;;;20.20;10.80;;;;;;;0.21;100.00;98995.10;272687;1277;22328;-84
2024/01/13 11:40:54;;;;;;;20.50;9.50;;;;;;;0.18;100.00;98987.42;272583;1274;22312;-85
2024/01/13 11:47:05;;;;;;;20.70;9.20;;;;;;;0.16;100.00;98977.79;272497;1275;22304;-84
2024/01/13 11:53:35;;;;;;;27.20;11.10;;;;;;;0.18;100.00;98968.31;272775;1277;23059;-85
2024/01/13 11:59:39;;;;;;;25.30;11.70;;;;;;;0.19;100.00;98964.30;272607;1277;22231;-84
2024/01/13 12:05:40;;;;;;;19.40;10.10;;;;;;;0.19;100.00;98953.26;271007;1275;22221;-86
2024/01/13 12:11:51;;;;;;;17.60;9.70;;;;;;;0.18;100.00;98938.73;269302;1274;22646;-84
2024/01/13 12:17:53;;;;;;;22.10;11.70;;;;;;;0.18;100.00;98927.23;271185;1277;22818;-85
2024/01/13 12:23:57;;;;;;;25.90;12.80;;;;;;;0.18;100.00;98915.17;271277;1276;23425;-85
2024/01/13 12:30:00;;;;;;;25.60;11.80;;;;;;;0.16;100.00;98909.63;271126;1275;22543;-86
2024/01/13 12:36:03;;;;;;;19.60;11.50;;;;;;;0.14;100.00;98910.69;271277;1275;22212;-85
2024/01/13 12:42:05;;;;;;;20.30;11.40;;;;;;;0.12;100.00;98907.62;272076;1267;22299;-84
2024/01/13 12:48:28;;;;;;;19.50;10.60;;;;;;;0.10;100.00;98895.44;272585;1277;22230;-86
2024/01/13 12:54:29;;;;;;;22.20;11.20;;;;;;;0.09;100.00;98885.90;272513;1271;22427;-84
2024/01/13 13:00:34;;;;;;;25.90;11.40;;;;;;;0.07;100.00;98881.27;272604;1282;22252;-84
2024/01/13 13:06:36;;;;;;;22.30;10.40;;;;;;;0.06;100.00;98876.13;272637;1277;22232;-85
2024/01/13 13:12:42;;;;;;;22.50;11.20;;;;;;;0.03;100.00;98874.95;272562;1282;23468;-86
2024/01/13 13:18:47;;;;;;;20.20;10.30;;;;;;;0.03;100.00;98868.80;272431;1275;22457;-83
2024/01/13 13:24:49;;;;;;;22.20;10.90;;;;;;;0.04;100.00;98870.05;272417;1277;22405;-84
2024/01/13 13:30:53;;;;;;;22.00;11.50;;;;;;;0.03;100.00;98869.98;272460;1276;23085;-84
2024/01/13 13:36:56;;;;;;;24.80;11.80;;;;;;;0.00;100.00;98867.94;272601;1275;23588;-85
2024/01/13 13:42:58;;;;;;;24.80;12.30;;;;;;;-0.02;100.00;98867.92;272418;1276;22391;-85
2024/01/13 13:49:00;;;;;;;26.20;14.00;;;;;;;-0.05;100.00;98857.17;272517;1276;22279;-84
2024/01/13 13:55:03;;;;;;;26.40;14.90;;;;;;;-0.07;100.00;98823.86;272510;1266;22252;-84
2024/01/13 14:01:05;;;;;;;30.20;14.60;;;;;;;-0.08;100.00;98808.41;272327;1275;22279;-85
2024/01/13 14:07:07;;;;;;;27.90;15.80;;;;;;;-0.10;100.00;98823.16;272381;1271;22229;-85
2024/01/13 14:13:08;;;;;;;30.00;16.80;;;;;;;-0.13;100.00;98823.72;271531;1277;23201;-83
2024/01/13 14:19:10;;;;;;;32.10;16.50;;;;;;;-0.14;100.00;98811.64;272703;1271;22940;-84
2024/01/13 14:25:14;;;;;;;36.30;16.80;;;;;;;-0.15;100.00;98815.65;272527;1277;22209;-84
2024/01/13 14:31:29;;;;;;;31.40;18.10;;;;;;;-0.17;100.00;98814.04;271732;1275;22434;-84
2024/01/13 14:37:31;;;;;;;31.40;17.00;;;;;;;-0.19;100.00;98805.31;272736;1277;22191;-85
2024/01/13 14:43:33;;;;;;;35.90;17.80;;;;;;;-0.21;100.00;98790.40;272295;1278;22559;-85
2024/01/13 14:49:35;;;;;;;31.40;16.20;;;;;;;-0.22;100.00;98782.80;270980;1275;22257;-84
2024/01/13 14:55:37;;;;;;;29.10;15.70;;;;;;;-0.25;100.00;98772.16;272765;1282;22205;-85
2024/01/13 15:01:38;;;;;;;27.00;15.60;;;;;;;-0.27;100.00;98758.44;269886;1259;22591;-84
2024/01/13 15:07:40;;;;;;;32.90;15.50;;;;;;;-0.27;100.00;98760.21;270762;1277;22415;-84
2024/01/13 15:13:42;;;;;;;32.90;16.70;;;;;;;-0.28;100.00;98754.00;272584;1275;22424;-85
2024/01/13 15:19:44;;;;;;;30.50;15.40;;;;;;;-0.29;100.00;98755.87;272275;1277;22369;-84
2024/01/13 15:25:46;;;;;;;31.80;15.80;;;;;;;-0.31;100.00;98752.22;272606;1277;23170;-85
2024/01/13 15:31:48;;;;;;;30.10;14.90;;;;;;;-0.34;100.00;98744.64;272660;1274;23342;-85
2024/01/13 15:37:50;;;;;;;20.60;10.10;;;;;;;-0.35;100.00;98743.80;272791;1264;22849;-84
2024/01/13 15:43:52;;;;;;;13.40;8.80;;;;;;;-0.36;100.00;98728.56;271843;1277;22559;-87
2024/01/13 15:49:53;;;;;;;14.50;8.20;;;;;;;-0.36;100.00;98711.52;271384;1277;22576;-86
2024/01/13 15:56:02;;;;;;;15.90;9.20;;;;;;;-0.38;100.00;98706.79;272516;1275;22549;-85
2024/01/13 16:02:03;;;;;;;12.90;7.80;;;;;;;-0.40;100.00;98703.52;272400;1277;22209;-85
2024/01/13 16:08:05;;;;;;;15.70;8.20;;;;;;;-0.41;100.00;98701.48;272461;1276;22389;-85
2024/01/13 16:14:07;;;;;;;12.10;7.50;;;;;;;-0.42;100.00;98683.36;270189;1275;22564;-84
2024/01/13 16:20:10;;;;;;;13.50;7.60;;;;;;;-0.44;100.00;98684.58;269851;1275;22543;-85
2024/01/13 16:26:44;;;;;;;12.20;7.50;;;;;;;-0.47;100.00;98680.30;270504;1275;22576;-84
2024/01/13 16:33:20;;;;;;;9.90;6.80;;;;;;;-0.50;100.00;98674.95;271018;1274;22414;-84
2024/01/13 16:39:47;;;;;;;12.30;7.20;;;;;;;-0.52;100.00;98675.75;271841;1277;22218;-85
2024/01/13 16:45:52;;;;;;;14.40;8.20;;;;;;;-0.53;99.99;98672.02;272783;1277;22192;-84
2024/01/13 16:51:54;;;;;;;13.90;6.90;;;;;;;-0.53;99.99;98668.63;271621;1276;22570;-84
2024/01/13 16:57:56;;;;;;;9.80;5.80;;;;;;;-0.55;99.85;98667.23;271926;1275;23181;-87
2024/01/13 17:03:58;;;;;;;8.10;4.80;;;;;;;-0.57;99.54;98655.63;272352;1277;22312;-87
2024/01/13 17:10:00;;;;;;;5.80;4.10;;;;;;;-0.55;98.69;98635.33;272496;1277;22286;-84
2024/01/13 17:16:20;;;;;;;;;;;;;;;;;;;;;
2024/01/13 17:22:40;;;;;;;8.60;6.20;;;;;;;-0.53;98.17;98639.19;272192;1277;22298;-84
2024/01/13 17:28:42;;;;;;;12.50;7.10;;;;;;;-0.50;97.89;98630.97;272492;1275;22960;-85
2024/01/13 17:34:44;;;;;;;19.20;8.60;;;;;;;-0.49;97.62;98629.70;264892;1277;10001885;-85
2024/01/13 17:40:46;;;;;;;14.30;6.80;;;;;;;-0.50;97.66;98624.61;272574;1274;22321;-86
2024/01/13 17:46:49;;;;;;;11.40;6.20;;;;;;;-0.51;97.49;98616.80;272424;1278;22214;-85
2024/01/13 17:52:51;;;;;;;14.00;6.40;;;;;;;-0.52;97.52;98611.98;272697;1282;22176;-84
2024/01/13 17:58:53;;;;;;;11.90;7.30;;;;;;;-0.52;97.45;98606.52;272685;1282;23051;-86
2024/01/13 18:04:55;;;;;;;12.80;7.30;;;;;;;-0.53;97.47;98600.02;272729;1282;22273;-84
2024/01/13 18:10:57;;;;;;;14.40;8.60;;;;;;;-0.53;97.26;98593.09;272362;1277;22714;-85
2024/01/13 18:17:01;;;;;;;14.50;7.60;;;;;;;-0.54;97.24;98582.40;271379;1276;22210;-84
2024/01/13 18:23:03;;;;;;;12.20;7.10;;;;;;;-0.54;96.80;98570.38;272522;1278;22197;-84
2024/01/13 18:29:05;;;;;;;12.70;7.60;;;;;;;-0.57;96.72;98553.30;272324;1275;22548;-85
2024/01/13 18:35:11;;;;;;;13.00;7.40;;;;;;;-0.58;96.81;98548.80;272493;1259;22224;-87
2024/01/13 18:41:13;;;;;;;13.60;6.70;;;;;;;-0.58;96.66;98553.16;271410;1275;22377;-84
2024/01/13 18:47:17;;;;;;;15.80;6.90;;;;;;;-0.59;96.31;98541.90;270367;1279;22553;-86
2024/01/13 18:53:22;;;;;;;10.40;6.10;;;;;;;-0.58;96.32;98528.35;269796;1275;23304;-86
2024/01/13 18:59:26;;;;;;;12.20;6.60;;;;;;;-0.59;96.19;98517.67;270973;1274;22413;-86
2024/01/13 19:05:29;;;;;;;15.70;8.20;;;;;;;-0.62;96.19;98513.27;272358;1282;22246;-85
2024/01/13 19:11:31;;;;;;;14.80;6.70;;;;;;;-0.62;96.13;98514.33;272483;1276;22189;-85
2024/01/13 19:17:33;;;;;;;16.00;8.40;;;;;;;-0.62;95.86;98521.73;272615;1277;22201;-85
2024/01/13 19:23:35;;;;;;;11.30;6.40;;;;;;;-0.62;95.95;98522.02;272511;1275;22904;-86
2024/01/13 19:29:37;;;;;;;12.00;6.90;;;;;;;-0.63;95.79;98512.90;272538;1275;22208;-85
2024/01/13 19:35:39;;;;;;;13.60;6.60;;;;;;;-0.63;95.74;98500.33;272329;1276;22250;-85
2024/01/13 19:41:42;;;;;;;10.70;6.50;;;;;;;-0.65;95.85;98498.59;272390;1274;22236;-85
2024/01/13 19:47:44;;;;;;;16.80;8.30;;;;;;;-0.66;95.84;98499.16;272515;1274;22242;-86
2024/01/13 19:53:47;;;;;;;10.90;6.60;;;;;;;-0.67;95.58;98483.44;272561;1279;22268;-86
2024/01/13 19:59:49;;;;;;;10.10;6.60;;;;;;;-0.67;95.40;98478.23;272383;1280;23686;-86
2024/01/13 20:05:51;;;;;;;16.00;7.90;;;;;;;-0.67;95.46;98466.65;272451;1275;22321;-85
2024/01/13 20:11:53;;;;;;;12.30;7.20;;;;;;;-0.68;95.20;98463.30;272485;1274;22337;-85
2024/01/13 20:17:55;;;;;;;12.50;6.90;;;;;;;-0.68;95.12;98458.45;272301;1277;22335;-86
2024/01/13 20:23:57;;;;;;;9.30;6.30;;;;;;;-0.68;95.15;98456.31;272435;1276;22289;-85
2024/01/13 20:30:03;;;;;;;11.60;6.90;;;;;;;-0.70;94.83;98452.77;272300;1276;22319;-84
2024/01/13 20:36:06;;;;;;;11.50;7.00;;;;;;;-0.70;95.09;98441.38;272563;1268;22803;-85
2024/01/13 20:42:08;;;;;;;13.90;7.70;;;;;;;-0.71;94.71;98435.88;272412;1282;22278;-84
2024/01/13 20:48:10;;;;;;;10.40;7.10;;;;;;;-0.73;94.65;98436.36;272401;1275;22214;-85
2024/01/13 20:54:12;;;;;;;10.80;7.60;;;;;;;-0.73;94.47;98425.67;271581;1279;23744;-85
2024/01/13 21:00:15;;;;;;;15.00;7.80;;;;;;;-0.73;94.76;98421.27;270428;1278;23342;-84
2024/01/13 21:06:18;;;;;;;15.50;8.60;;;;;;;-0.77;94.85;98411.75;269870;1274;23838;-86
2024/01/13 21:12:20;;;;;;;12.20;7.90;;;;;;;-0.79;94.66;98406.66;272451;1280;22215;-85
2024/01/13 21:18:22;;;;;;;16.50;8.20;;;;;;;-0.79;94.57;98394.95;272585;1279;22228;-85
2024/01/13 21:24:24;;;;;;;14.50;9.10;;;;;;;-0.80;94.38;98376.34;271628;1276;22582;-85
2024/01/13 21:30:27;;;;;;;12.00;7.60;;;;;;;-0.82;94.43;98359.98;269434;1279;427353;-86
2024/01/13 21:36:29;;;;;;;11.00;7.70;;;;;;;-0.83;94.11;98337.26;270225;1277;22551;-85
2024/01/13 21:42:31;;;;;;;12.70;7.70;;;;;;;-0.86;93.90;98330.84;269932;1278;22350;-85
2024/01/13 21:48:34;;;;;;;18.60;8.70;;;;;;;-0.87;93.79;98331.25;272630;1282;22202;-86
2024/01/13 21:54:36;;;;;;;17.10;8.70;;;;;;;-0.86;93.60;98316.96;272462;1277;22180;-85
2024/01/13 22:00:38;;;;;;;13.10;7.80;;;;;;;-0.84;93.67;98309.44;272539;1270;22714;-87
2024/01/13 22:06:39;;;;;;;16.00;8.50;;;;;;;-0.83;93.71;98289.21;272503;1277;22325;-85
2024/01/13 22:12:42;;;;;;;15.60;8.90;;;;;;;-0.83;93.77;98279.16;272818;1281;22238;-85
2024/01/13 22:18:44;;;;;;;15.80;9.50;;;;;;;-0.85;94.02;98275.65;272450;1277;22435;-86
2024/01/13 22:24:46;;;;;;;16.10;9.20;;;;;;;-0.86;94.25;98275.59;272686;1282;22213;-85
2024/01/13 22:30:47;;;;;;;15.60;9.90;;;;;;;-0.89;94.51;98270.91;272463;1276;22435;-85
2024/01/13 22:36:50;;;;;;;16.00;9.50;;;;;;;-0.92;94.64;98255.33;272590;1277;23569;-85
2024/01/13 22:42:52;;;;;;;13.50;8.10;;;;;;;-0.97;94.48;98246.83;272573;1276;22414;-85
2024/01/13 22:48:53;;;;;;;13.80;9.00;;;;;;;-1.02;94.61;98247.18;272587;1280;23013;-85
2024/01/13 22:54:55;;;;;;;15.10;8.80;;;;;;;-1.03;94.72;98244.19;272280;1282;22556;-86
2024/01/13 23:00:58;;;;;;;18.40;8.80;;;;;;;-1.05;94.89;98240.70;269098;1277;22396;-85
2024/01/13 23:07:00;;;;;;;18.80;9.20;;;;;;;-1.08;95.15;98243.29;269850;1276;22530;-84
2024/01/13 23:13:02;;;;;;;18.10;10.10;;;;;;;-1.09;95.33;98241.56;269571;1276;22255;-85
2024/01/13 23:19:03;;;;;;;17.60;9.60;;;;;;;-1.10;95.53;98237.52;272665;1277;22215;-86
2024/01/13 23:25:06;;;;;;;17.10;10.90;;;;;;;-1.09;95.82;98225.60;272478;1276;23121;-85
2024/01/13 23:31:08;;;;;;;18.70;10.20;;;;;;;-1.09;95.89;98215.46;270073;1276;22250;-85
2024/01/13 23:37:09;;;;;;;16.10;9.50;;;;;;;-1.10;96.01;98208.98;269948;1277;24084;-85
2024/01/13 23:43:11;;;;;;;21.70;11.00;;;;;;;-1.11;96.16;98212.24;270400;1276;22328;-85
2024/01/13 23:49:14;;;;;;;17.60;10.40;;;;;;;-1.13;96.26;98207.98;270555;1275;22245;-85
2024/01/13 23:55:18;;;;;;;18.80;10.30;;;;;;;-1.16;96.58;98204.63;271459;1276;22361;-85
